Time,TemperatureF,DewpointF,PressureIn,WindDirection,WindDirectionDegrees,WindSpeedMPH,WindSpeedGustMPH,Humidity,HourlyPrecipIn,Conditions,Clouds,dailyrainin,SoftwareType,DateUTC
2013-02-26 00:01:00,28.0,11.0,30.06,NW,317,0.0,-999.0,48,-99.99,,,-99.99,,2013-02-26 07:01:00,
2013-02-26 00:11:00,28.0,11.0,30.06,NW,317,0.0,-999.0,48,-99.99,,,-99.99,,2013-02-26 07:11:00,
2013-02-26 00:21:00,28.0,10.0,30.05,NW,317,0.0,-999.0,46,-99.99,,,-99.99,,2013-02-26 07:21:00,
2013-02-26 00:31:00,27.0,10.0,30.05,NW,317,0.0,-999.0,48,-99.99,,,-99.99,,2013-02-26 07:31:00,
2013-02-26 00:41:00,27.0,10.0,30.05,NW,317,0.0,-999.0,48,-99.99,,,-99.99,,2013-02-26 07:41:00,
2013-02-26 00:51:00,27.0,11.0,30.05,NW,317,0.0,-999.0,51,-99.99,,,-99.99,,2013-02-26 07:51:00,
2013-02-26 01:01:00,26.0,10.0,30.05,NW,317,0.0,-999.0,51,-99.99,,,-99.99,,2013-02-26 08:01:00,
2013-02-26 01:11:00,26.0,10.0,30.05,NW,317,0.0,-999.0,51,-99.99,,,-99.99,,2013-02-26 08:11:00,
2013-02-26 01:21:00,26.0,11.0,30.05,NW,317,1.0,-999.0,53,-99.99,,,-99.99,,2013-02-26 08:21:00,
2013-02-26 01:31:00,27.0,11.0,30.04,NW,317,1.0,-999.0,51,-99.99,,,-99.99,,2013-02-26 08:31:00,
2013-02-26 01:41:00,27.0,11.0,30.04,NW,317,1.0,-999.0,51,-99.99,,,-99.99,,2013-02-26 08:41:00,
2013-02-26 01:52:00,27.0,11.0,30.03,NW,317,1.0,-999.0,50,-99.99,,,-99.99,,2013-02-26 08:52:00,
2013-02-26 02:01:00,27.0,11.0,30.03,NW,317,0.0,-999.0,51,-99.99,,,-99.99,,2013-02-26 09:01:00,
2013-02-26 02:11:00,27.0,11.0,30.03,NW,317,0.0,-999.0,51,-99.99,,,-99.99,,2013-02-26 09:11:00,
2013-02-26 02:21:00,26.0,11.0,30.03,NW,317,0.0,-999.0,52,-99.99,,,-99.99,,2013-02-26 09:21:00,
2013-02-26 02:31:00,28.0,11.0,30.02,NW,317,2.0,-999.0,49,-99.99,,,-99.99,,2013-02-26 09:31:00,
2013-02-26 02:43:00,28.0,11.0,30.02,NW,317,2.0,-999.0,49,-99.99,,,-99.99,,2013-02-26 09:43:00,
2013-02-26 02:51:00,27.0,10.0,30.01,NW,317,0.0,-999.0,49,-99.99,,,-99.99,,2013-02-26 09:51:00,
2013-02-26 03:01:00,26.0,11.0,30.01,NW,317,0.0,-999.0,53,-99.99,,,-99.99,,2013-02-26 10:01:00,
2013-02-26 03:11:00,26.0,11.0,30.01,NW,317,0.0,-999.0,53,-99.99,,,-99.99,,2013-02-26 10:11:00,
2013-02-26 03:21:00,25.0,12.0,30.02,NW,317,0.0,-999.0,57,-99.99,,,-99.99,,2013-02-26 10:21:00,
2013-02-26 03:31:00,26.0,12.0,30.01,NW,317,4.0,-999.0,56,-99.99,,,-99.99,,2013-02-26 10:31:00,
2013-02-26 03:41:00,26.0,12.0,30.01,NW,317,4.0,-999.0,56,-99.99,,,-99.99,,2013-02-26 10:41:00,
2013-02-26 03:51:00,27.0,13.0,30.01,NW,317,1.0,-999.0,56,-99.99,,,-99.99,,2013-02-26 10:51:00,
2013-02-26 04:01:00,27.0,12.0,30.01,NW,313,3.0,-999.0,53,-99.99,,,-99.99,,2013-02-26 11:01:00,
2013-02-26 04:11:00,27.0,12.0,30.01,NW,313,3.0,-999.0,53,-99.99,,,-99.99,,2013-02-26 11:11:00,
2013-02-26 04:21:00,27.0,13.0,30.00,WNW,302,1.0,-999.0,54,-99.99,,,-99.99,,2013-02-26 11:21:00,
2013-02-26 04:31:00,25.0,13.0,30.01,WNW,302,0.0,-999.0,59,-99.99,,,-99.99,,2013-02-26 11:31:00,
2013-02-26 04:41:00,25.0,13.0,30.01,WNW,302,0.0,-999.0,59,-99.99,,,-99.99,,2013-02-26 11:41:00,
2013-02-26 04:52:00,25.0,13.0,30.01,WNW,302,1.0,-999.0,60,-99.99,,,-99.99,,2013-02-26 11:52:00,
2013-02-26 05:01:00,25.0,14.0,30.01,WNW,302,0.0,-999.0,62,-99.99,,,-99.99,,2013-02-26 12:01:00,
2013-02-26 05:11:00,25.0,14.0,30.01,WNW,302,0.0,-999.0,62,-99.99,,,-99.99,,2013-02-26 12:11:00,
2013-02-26 05:22:00,25.0,14.0,30.02,WNW,302,0.0,-999.0,62,-99.99,,,-99.99,,2013-02-26 12:22:00,
2013-02-26 05:32:00,25.0,13.0,30.01,WNW,302,0.0,-999.0,61,-99.99,,,-99.99,,2013-02-26 12:32:00,
2013-02-26 05:42:00,25.0,13.0,30.01,WNW,302,0.0,-999.0,61,-99.99,,,-99.99,,2013-02-26 12:42:00,
2013-02-26 05:52:00,24.0,13.0,30.00,WNW,302,0.0,-999.0,63,-99.99,,,-99.99,,2013-02-26 12:52:00,
2013-02-26 06:01:00,23.0,13.0,30.01,WNW,302,0.0,-999.0,64,-99.99,,,-99.99,,2013-02-26 13:01:00,
2013-02-26 06:11:00,23.0,13.0,30.01,WNW,302,0.0,-999.0,64,-99.99,,,-99.99,,2013-02-26 13:11:00,
2013-02-26 06:21:00,23.0,13.0,30.00,WNW,302,0.0,-999.0,64,-99.99,,,-99.99,,2013-02-26 13:21:00,
2013-02-26 06:31:00,22.0,12.0,30.00,WNW,302,1.0,-999.0,65,-99.99,,,-99.99,,2013-02-26 13:31:00,
2013-02-26 06:42:00,22.0,12.0,30.00,WNW,302,1.0,-999.0,65,-99.99,,,-99.99,,2013-02-26 13:42:00,
2013-02-26 06:51:00,23.0,13.0,30.00,WNW,302,0.0,-999.0,65,-99.99,,,-99.99,,2013-02-26 13:51:00,
2013-02-26 07:01:00,22.0,12.0,30.00,WNW,302,0.0,-999.0,64,-99.99,,,-99.99,,2013-02-26 14:01:00,
2013-02-26 07:11:00,22.0,12.0,30.00,WNW,302,0.0,-999.0,64,-99.99,,,-99.99,,2013-02-26 14:11:00,
2013-02-26 07:21:00,23.0,13.0,30.00,WNW,302,1.0,-999.0,64,-99.99,,,-99.99,,2013-02-26 14:21:00,
2013-02-26 07:31:00,23.0,13.0,30.01,WNW,302,0.0,-999.0,64,-99.99,,,-99.99,,2013-02-26 14:31:00,
2013-02-26 07:41:00,23.0,13.0,30.01,WNW,302,0.0,-999.0,64,-99.99,,,-99.99,,2013-02-26 14:41:00,
2013-02-26 07:52:00,25.0,16.0,30.00,WNW,302,1.0,-999.0,67,-99.99,,,-99.99,,2013-02-26 14:52:00,
2013-02-26 08:01:00,29.0,17.0,30.01,WNW,302,0.0,-999.0,60,-99.99,,,-99.99,,2013-02-26 15:01:00,
2013-02-26 08:11:00,29.0,17.0,30.01,WNW,302,0.0,-999.0,60,-99.99,,,-99.99,,2013-02-26 15:11:00,
2013-02-26 08:21:00,34.0,18.0,30.01,WNW,302,0.0,-999.0,51,-99.99,,,-99.99,,2013-02-26 15:21:00,
2013-02-26 08:32:00,37.0,15.0,30.01,WNW,302,0.0,-999.0,40,-99.99,,,-99.99,,2013-02-26 15:32:00,
2013-02-26 08:41:00,37.0,15.0,30.01,WNW,302,0.0,-999.0,40,-99.99,,,-99.99,,2013-02-26 15:41:00,
2013-02-26 08:51:00,39.0,15.0,30.02,WNW,302,0.0,-999.0,37,-99.99,,,-99.99,,2013-02-26 15:51:00,
2013-02-26 09:01:00,41.0,13.0,30.02,WNW,302,0.0,-999.0,32,-99.99,,,-99.99,,2013-02-26 16:01:00,
2013-02-26 09:22:00,42.0,11.0,30.03,WNW,303,0.0,-999.0,28,-99.99,,,-99.99,,2013-02-26 16:22:00,
2013-02-26 09:31:00,42.0,11.0,30.03,WNW,303,0.0,-999.0,28,-99.99,,,-99.99,,2013-02-26 16:31:00,
2013-02-26 09:42:00,42.0,11.0,30.03,WNW,303,0.0,-999.0,28,-99.99,,,-99.99,,2013-02-26 16:42:00,
2013-02-26 09:51:00,43.0,12.0,30.03,NW,307,0.0,-999.0,28,-99.99,,,-99.99,,2013-02-26 16:51:00,
2013-02-26 10:01:00,45.0,13.0,30.03,NW,308,0.0,-999.0,27,-99.99,,,-99.99,,2013-02-26 17:01:00,
2013-02-26 10:11:00,45.0,13.0,30.03,NW,308,0.0,-999.0,27,-99.99,,,-99.99,,2013-02-26 17:11:00,
2013-02-26 10:21:00,45.0,13.0,30.03,NW,308,0.0,-999.0,27,-99.99,,,-99.99,,2013-02-26 17:21:00,
2013-02-26 10:32:00,45.0,13.0,30.03,NW,308,0.0,-999.0,27,-99.99,,,-99.99,,2013-02-26 17:32:00,
2013-02-26 10:52:00,48.0,11.0,30.01,NW,315,0.0,-999.0,22,-99.99,,,-99.99,,2013-02-26 17:52:00,
2013-02-26 11:01:00,49.0,11.0,30.02,WNW,286,1.0,-999.0,21,-99.99,,,-99.99,,2013-02-26 18:01:00,
2013-02-26 11:12:00,49.0,11.0,30.02,WNW,286,1.0,-999.0,21,-99.99,,,-99.99,,2013-02-26 18:12:00,
2013-02-26 11:21:00,49.0,9.0,30.01,WNW,284,0.0,-999.0,19,-99.99,,,-99.99,,2013-02-26 18:21:00,
2013-02-26 11:32:00,51.0,10.0,30.01,WNW,284,1.0,-999.0,19,-99.99,,,-99.99,,2013-02-26 18:32:00,
2013-02-26 11:42:00,51.0,10.0,30.01,WNW,284,1.0,-999.0,19,-99.99,,,-99.99,,2013-02-26 18:42:00,
2013-02-26 11:52:00,53.0,9.0,30.01,WNW,283,1.0,-999.0,17,-99.99,,,-99.99,,2013-02-26 18:52:00,
2013-02-26 12:01:00,55.0,10.0,30.01,NW,305,1.0,-999.0,16,-99.99,,,-99.99,,2013-02-26 19:01:00,
2013-02-26 12:11:00,55.0,10.0,30.01,NW,305,1.0,-999.0,16,-99.99,,,-99.99,,2013-02-26 19:11:00,
2013-02-26 12:22:00,55.0,10.0,30.01,NNW,343,1.0,-999.0,16,-99.99,,,-99.99,,2013-02-26 19:22:00,
2013-02-26 12:31:00,55.0,8.0,30.00,NNW,340,1.0,-999.0,15,-99.99,,,-99.99,,2013-02-26 19:31:00,
2013-02-26 12:41:00,55.0,8.0,30.00,NNW,340,1.0,-999.0,15,-99.99,,,-99.99,,2013-02-26 19:41:00,
2013-02-26 12:51:00,57.0,8.0,29.99,NNW,339,1.0,-999.0,14,-99.99,,,-99.99,,2013-02-26 19:51:00,
2013-02-26 13:01:00,59.0,6.0,29.98,NNW,345,1.0,-999.0,12,-99.99,,,-99.99,,2013-02-26 20:01:00,
2013-02-26 13:11:00,59.0,6.0,29.98,NNW,345,1.0,-999.0,12,-99.99,,,-99.99,,2013-02-26 20:11:00,
2013-02-26 13:20:00,63.0,6.0,29.96,NNE,13,5.0,-999.0,10,-99.99,,,-99.99,,2013-02-26 20:20:00,
2013-02-26 13:21:00,60.0,5.0,29.98,NNE,28,1.0,-999.0,11,-99.99,,,-99.99,,2013-02-26 20:21:00,
2013-02-26 13:31:00,60.0,5.0,29.97,NW,323,2.0,-999.0,11,-99.99,,,-99.99,,2013-02-26 20:31:00,
2013-02-26 13:41:00,60.0,5.0,29.97,NW,323,2.0,-999.0,11,-99.99,,,-99.99,,2013-02-26 20:41:00,
2013-02-26 13:51:00,63.0,6.0,29.96,NNE,13,5.0,-999.0,10,-99.99,,,-99.99,,2013-02-26 20:51:00,
2013-02-26 14:01:00,63.0,6.0,29.96,NNE,13,5.0,-999.0,10,-99.99,,,-99.99,,2013-02-26 21:01:00,
2013-02-26 14:11:00,63.0,6.0,29.96,NNE,13,5.0,-999.0,10,-99.99,,,-99.99,,2013-02-26 21:11:00,
2013-02-26 14:31:00,65.0,5.0,29.93,NW,311,5.0,-999.0,9,-99.99,,,-99.99,,2013-02-26 21:31:00,
2013-02-26 14:41:00,65.0,5.0,29.93,NW,311,5.0,-999.0,9,-99.99,,,-99.99,,2013-02-26 21:41:00,
2013-02-26 14:51:00,64.0,4.0,29.93,North,360,6.0,-999.0,9,-99.99,,,-99.99,,2013-02-26 21:51:00,
2013-02-26 15:01:00,64.0,6.0,29.93,North,11,8.0,-999.0,10,-99.99,,,-99.99,,2013-02-26 22:01:00,
2013-02-26 15:11:00,63.0,6.0,29.93,North,9,7.0,-999.0,10,-99.99,,,-99.99,,2013-02-26 22:11:00,
2013-02-26 15:21:00,63.0,6.0,29.93,North,9,7.0,-999.0,10,-99.99,,,-99.99,,2013-02-26 22:21:00,
2013-02-26 15:31:00,62.0,5.0,29.93,North,350,7.0,-999.0,10,-99.99,,,-99.99,,2013-02-26 22:31:00,
2013-02-26 15:41:00,62.0,5.0,29.93,North,350,7.0,-999.0,10,-99.99,,,-99.99,,2013-02-26 22:41:00,
2013-02-26 15:51:00,62.0,7.0,29.93,NNW,336,9.0,-999.0,11,-99.99,,,-99.99,,2013-02-26 22:51:00,
2013-02-26 16:01:00,60.0,7.0,29.94,NNW,339,9.0,-999.0,12,-99.99,,,-99.99,,2013-02-26 23:01:00,
2013-02-26 16:11:00,60.0,7.0,29.94,NNW,339,9.0,-999.0,12,-99.99,,,-99.99,,2013-02-26 23:11:00,
2013-02-26 16:21:00,59.0,6.0,29.94,NNW,342,8.0,-999.0,12,-99.99,,,-99.99,,2013-02-26 23:21:00,
2013-02-26 16:31:00,59.0,6.0,29.94,NNW,342,8.0,-999.0,12,-99.99,,,-99.99,,2013-02-26 23:31:00,
2013-02-26 16:41:00,59.0,6.0,29.94,NNW,342,8.0,-999.0,12,-99.99,,,-99.99,,2013-02-26 23:41:00,
2013-02-26 16:51:00,58.0,6.0,29.95,North,360,8.0,-999.0,12,-99.99,,,-99.99,,2013-02-26 23:51:00,
2013-02-26 17:01:00,58.0,6.0,29.95,North,351,8.0,-999.0,12,-99.99,,,-99.99,,2013-02-27 00:01:00,
2013-02-26 17:11:00,58.0,6.0,29.95,North,351,8.0,-999.0,12,-99.99,,,-99.99,,2013-02-27 00:11:00,
2013-02-26 17:21:00,57.0,5.0,29.95,North,351,7.0,-999.0,12,-99.99,,,-99.99,,2013-02-27 00:21:00,
2013-02-26 17:31:00,56.0,6.0,29.96,NW,311,7.0,-999.0,13,-99.99,,,-99.99,,2013-02-27 00:31:00,
2013-02-26 17:41:00,56.0,6.0,29.96,NW,311,7.0,-999.0,13,-99.99,,,-99.99,,2013-02-27 00:41:00,
2013-02-26 17:51:00,55.0,7.0,29.96,North,10,7.0,-999.0,14,-99.99,,,-99.99,,2013-02-27 00:51:00,
2013-02-26 18:01:00,53.0,7.0,29.96,North,360,7.0,-999.0,15,-99.99,,,-99.99,,2013-02-27 01:01:00,
2013-02-26 18:11:00,53.0,7.0,29.96,North,360,7.0,-999.0,15,-99.99,,,-99.99,,2013-02-27 01:11:00,
2013-02-26 18:21:00,52.0,7.0,29.97,NW,319,5.0,-999.0,16,-99.99,,,-99.99,,2013-02-27 01:21:00,
2013-02-26 18:31:00,51.0,8.0,29.96,NW,317,7.0,-999.0,17,-99.99,,,-99.99,,2013-02-27 01:31:00,
2013-02-26 18:41:00,51.0,8.0,29.96,NW,317,7.0,-999.0,17,-99.99,,,-99.99,,2013-02-27 01:41:00,
2013-02-26 18:51:00,49.0,6.0,29.96,WNW,290,6.0,-999.0,17,-99.99,,,-99.99,,2013-02-27 01:51:00,
2013-02-26 19:01:00,46.0,7.0,29.96,WNW,295,4.0,-999.0,20,-99.99,,,-99.99,,2013-02-27 02:01:00,
2013-02-26 19:13:00,46.0,7.0,29.96,WNW,295,4.0,-999.0,20,-99.99,,,-99.99,,2013-02-27 02:13:00,
2013-02-26 19:21:00,45.0,4.0,29.97,WNW,299,2.0,-999.0,18,-99.99,,,-99.99,,2013-02-27 02:21:00,
2013-02-26 19:31:00,45.0,3.0,29.98,WNW,292,1.0,-999.0,17,-99.99,,,-99.99,,2013-02-27 02:31:00,
2013-02-26 19:41:00,45.0,3.0,29.98,WNW,292,1.0,-999.0,17,-99.99,,,-99.99,,2013-02-27 02:41:00,
2013-02-26 19:52:00,44.0,4.0,29.99,NNE,25,1.0,-999.0,19,-99.99,,,-99.99,,2013-02-27 02:52:00,
2013-02-26 20:01:00,43.0,6.0,29.99,NNW,329,2.0,-999.0,21,-99.99,,,-99.99,,2013-02-27 03:01:00,
2013-02-26 20:11:00,43.0,6.0,29.99,NNW,329,2.0,-999.0,21,-99.99,,,-99.99,,2013-02-27 03:11:00,
2013-02-26 20:21:00,44.0,6.0,30.00,NW,317,3.0,-999.0,20,-99.99,,,-99.99,,2013-02-27 03:21:00,
2013-02-26 20:31:00,44.0,6.0,30.01,NW,315,4.0,-999.0,20,-99.99,,,-99.99,,2013-02-27 03:31:00,
2013-02-26 20:41:00,44.0,6.0,30.01,NW,315,4.0,-999.0,20,-99.99,,,-99.99,,2013-02-27 03:41:00,
2013-02-26 20:51:00,44.0,4.0,30.01,NW,309,3.0,-999.0,19,-99.99,,,-99.99,,2013-02-27 03:51:00,
2013-02-26 21:01:00,42.0,5.0,30.01,NW,308,2.0,-999.0,21,-99.99,,,-99.99,,2013-02-27 04:01:00,
2013-02-26 21:11:00,42.0,5.0,30.01,NW,308,2.0,-999.0,21,-99.99,,,-99.99,,2013-02-27 04:11:00,
2013-02-26 21:21:00,40.0,6.0,30.02,NW,309,0.0,-999.0,24,-99.99,,,-99.99,,2013-02-27 04:21:00,
2013-02-26 21:31:00,40.0,5.0,30.02,NW,308,2.0,-999.0,23,-99.99,,,-99.99,,2013-02-27 04:31:00,
2013-02-26 21:41:00,40.0,5.0,30.02,NW,308,2.0,-999.0,23,-99.99,,,-99.99,,2013-02-27 04:41:00,
2013-02-26 21:51:00,41.0,4.0,30.03,WNW,296,4.0,-999.0,21,-99.99,,,-99.99,,2013-02-27 04:51:00,
2013-02-26 22:01:00,41.0,6.0,30.03,WNW,296,0.0,-999.0,23,-99.99,,,-99.99,,2013-02-27 05:01:00,
2013-02-26 22:11:00,41.0,6.0,30.03,WNW,296,0.0,-999.0,23,-99.99,,,-99.99,,2013-02-27 05:11:00,
2013-02-26 22:21:00,40.0,5.0,30.03,WNW,296,0.0,-999.0,23,-99.99,,,-99.99,,2013-02-27 05:21:00,
2013-02-26 22:32:00,41.0,5.0,30.04,WNW,297,0.0,-999.0,22,-99.99,,,-99.99,,2013-02-27 05:32:00,
2013-02-26 22:41:00,41.0,5.0,30.04,WNW,297,0.0,-999.0,22,-99.99,,,-99.99,,2013-02-27 05:41:00,
2013-02-26 22:52:00,39.0,6.0,30.04,WNW,297,1.0,-999.0,25,-99.99,,,-99.99,,2013-02-27 05:52:00,
2013-02-26 23:02:00,38.0,8.0,30.06,WNW,297,0.0,-999.0,28,-99.99,,,-99.99,,2013-02-27 06:02:00,
2013-02-26 23:11:00,38.0,8.0,30.06,WNW,297,0.0,-999.0,28,-99.99,,,-99.99,,2013-02-27 06:11:00,
2013-02-26 23:21:00,38.0,6.0,30.06,NW,310,2.0,-999.0,26,-99.99,,,-99.99,,2013-02-27 06:21:00,
2013-02-26 23:32:00,39.0,7.0,30.06,NW,309,2.0,-999.0,26,-99.99,,,-99.99,,2013-02-27 06:32:00,
2013-02-26 23:41:00,39.0,7.0,30.06,NW,309,2.0,-999.0,26,-99.99,,,-99.99,,2013-02-27 06:41:00,
2013-02-26 23:51:00,38.0,6.0,30.07,NW,309,2.0,-999.0,26,-99.99,,,-99.99,,2013-02-27 06:51:00,